Time,TemperatureF,DewpointF,PressureIn,WindDirection,WindDirectionDegrees,WindSpeedMPH,WindSpeedGustMPH,Humidity,HourlyPrecipIn,Conditions,Clouds,dailyrainin,SoftwareType,DateUTC
2013-07-31 00:05:00,65.7,53.6,30.21,SSE,152,18.3,18.3,65,0.16,,---,0.00,VWS V14.01,2013-07-31 06:05:00,
2013-07-31 00:10:00,65.3,53.7,30.21,SSE,149,15.0,15.0,66,0.16,,---,0.00,VWS V14.01,2013-07-31 06:10:00,
2013-07-31 00:16:00,65.1,53.9,30.21,SE,139,17.4,18.3,67,0.16,,---,0.00,VWS V14.01,2013-07-31 06:16:00,
2013-07-31 00:21:00,65.1,54.3,30.21,SE,146,18.3,18.3,68,0.20,,---,0.04,VWS V14.01,2013-07-31 06:21:00,
2013-07-31 00:26:00,65.3,54.5,30.21,SE,146,17.4,24.2,68,0.20,,---,0.04,VWS V14.01,2013-07-31 06:26:00,
2013-07-31 00:32:00,65.3,54.5,30.21,SSE,151,17.9,17.9,68,0.20,,---,0.04,VWS V14.01,2013-07-31 06:32:00,
2013-07-31 00:37:00,65.3,54.9,30.21,SSE,159,19.7,19.7,69,0.16,,---,0.04,VWS V14.01,2013-07-31 06:37:00,
2013-07-31 00:43:00,65.3,54.9,30.18,SSE,151,17.9,23.3,69,0.16,,---,0.04,VWS V14.01,2013-07-31 06:43:00,
2013-07-31 00:48:00,65.3,54.9,30.18,SSE,154,18.8,23.3,69,0.12,,---,0.04,VWS V14.01,2013-07-31 06:48:00,
2013-07-31 00:54:00,65.8,55.8,30.18,SSE,149,17.4,22.8,70,0.12,,---,0.04,VWS V14.01,2013-07-31 06:54:00,
2013-07-31 00:59:00,65.8,55.8,30.18,SSE,154,21.0,21.0,70,0.04,,---,0.04,VWS V14.01,2013-07-31 06:59:00,
2013-07-31 01:05:00,65.8,55.8,30.18,SE,144,15.0,18.3,70,0.04,,---,0.04,VWS V14.01,2013-07-31 07:05:00,
2013-07-31 01:11:00,65.8,55.8,30.18,SE,143,12.3,15.9,70,0.04,,---,0.04,VWS V14.01,2013-07-31 07:11:00,
2013-07-31 01:16:00,65.8,55.8,30.18,SSE,164,15.0,15.0,70,0.04,,---,0.04,VWS V14.01,2013-07-31 07:16:00,
2013-07-31 01:22:00,65.7,55.6,30.18,South,178,15.0,15.0,70,0.00,,---,0.04,VWS V14.01,2013-07-31 07:22:00,
2013-07-31 01:28:00,65.7,56.0,30.18,South,174,12.8,12.8,71,0.00,,---,0.04,VWS V14.01,2013-07-31 07:28:00,
2013-07-31 01:33:00,65.7,56.0,30.18,South,186,11.0,12.8,71,0.00,,---,0.04,VWS V14.01,2013-07-31 07:33:00,
2013-07-31 01:38:00,65.7,56.0,30.18,SSE,159,13.2,13.2,71,0.00,,---,0.04,VWS V14.01,2013-07-31 07:38:00,
2013-07-31 01:43:00,65.8,56.2,30.18,South,177,12.8,12.8,71,0.00,,---,0.04,VWS V14.01,2013-07-31 07:43:00,
2013-07-31 01:49:00,65.8,56.2,30.18,SSE,154,15.0,15.0,71,0.00,,---,0.04,VWS V14.01,2013-07-31 07:49:00,
2013-07-31 01:54:00,66.0,56.4,30.18,SSE,156,10.1,10.1,71,0.00,,---,0.04,VWS V14.01,2013-07-31 07:54:00,
2013-07-31 02:00:00,66.0,56.4,30.18,SSE,155,13.2,13.2,71,0.00,,---,0.04,VWS V14.01,2013-07-31 08:00:00,
2013-07-31 02:05:00,66.2,56.5,30.18,SSE,160,10.5,11.0,71,0.00,,---,0.04,VWS V14.01,2013-07-31 08:05:00,
2013-07-31 02:11:00,66.2,56.5,30.18,SE,124,8.3,8.3,71,0.00,,---,0.04,VWS V14.01,2013-07-31 08:11:00,
2013-07-31 02:16:00,66.2,56.5,30.18,ESE,112,8.3,8.3,71,0.00,,---,0.04,VWS V14.01,2013-07-31 08:16:00,
2013-07-31 02:22:00,66.0,56.4,30.21,East,82,10.5,13.6,71,0.00,,---,0.04,VWS V14.01,2013-07-31 08:22:00,
2013-07-31 02:28:00,66.0,56.4,30.21,ENE,64,7.6,7.6,71,0.00,,---,0.04,VWS V14.01,2013-07-31 08:28:00,
2013-07-31 02:33:00,65.8,56.2,30.21,ENE,75,5.4,5.8,71,0.00,,---,0.04,VWS V14.01,2013-07-31 08:33:00,
2013-07-31 02:39:00,65.8,56.6,30.21,NE,52,10.5,10.5,72,0.00,,---,0.04,VWS V14.01,2013-07-31 08:39:00,
2013-07-31 02:45:00,65.8,56.6,30.21,NE,41,11.4,11.4,72,0.00,,---,0.04,VWS V14.01,2013-07-31 08:45:00,
2013-07-31 02:50:00,65.8,56.6,30.24,ENE,73,10.5,10.5,72,0.00,,---,0.04,VWS V14.01,2013-07-31 08:50:00,
2013-07-31 02:56:00,66.0,57.5,30.24,NE,56,12.8,12.8,74,0.00,,---,0.04,VWS V14.01,2013-07-31 08:56:00,
2013-07-31 03:01:00,66.0,57.9,30.24,ENE,58,12.8,13.2,75,0.00,,---,0.04,VWS V14.01,2013-07-31 09:01:00,
2013-07-31 03:07:00,65.8,57.7,30.24,ENE,73,10.5,11.9,75,0.00,,---,0.04,VWS V14.01,2013-07-31 09:07:00,
2013-07-31 03:13:00,65.8,57.7,30.24,ENE,58,11.4,11.4,75,0.00,,---,0.04,VWS V14.01,2013-07-31 09:13:00,
2013-07-31 03:18:00,65.7,57.9,30.24,ENE,70,10.1,10.1,76,0.00,,---,0.04,VWS V14.01,2013-07-31 09:18:00,
2013-07-31 03:24:00,65.7,57.9,30.21,East,90,8.7,8.7,76,0.00,,---,0.04,VWS V14.01,2013-07-31 09:24:00,
2013-07-31 03:29:00,65.7,57.5,30.21,East,82,7.6,8.7,75,0.00,,---,0.04,VWS V14.01,2013-07-31 09:29:00,
2013-07-31 03:35:00,65.3,57.2,30.21,ENE,74,7.6,8.1,75,0.00,,---,0.04,VWS V14.01,2013-07-31 09:35:00,
2013-07-31 03:41:00,64.9,56.5,30.21,East,100,8.3,8.3,74,0.00,,---,0.04,VWS V14.01,2013-07-31 09:41:00,
2013-07-31 03:46:00,64.8,56.3,30.21,ESE,113,15.0,15.0,74,0.00,,---,0.04,VWS V14.01,2013-07-31 09:46:00,
2013-07-31 03:52:00,64.8,56.3,30.21,ESE,108,13.2,13.2,74,0.00,,---,0.04,VWS V14.01,2013-07-31 09:52:00,
2013-07-31 03:57:00,64.8,56.3,30.21,ESE,114,11.0,13.2,74,0.00,,---,0.04,VWS V14.01,2013-07-31 09:57:00,
2013-07-31 04:03:00,64.8,56.3,30.21,ESE,109,13.2,13.2,74,0.00,,---,0.04,VWS V14.01,2013-07-31 10:03:00,
2013-07-31 04:09:00,64.8,56.3,30.21,SE,128,12.8,13.2,74,0.00,,---,0.04,VWS V14.01,2013-07-31 10:09:00,
2013-07-31 04:14:00,64.8,56.7,30.21,SE,128,13.2,13.2,75,0.00,,---,0.04,VWS V14.01,2013-07-31 10:14:00,
2013-07-31 04:20:00,64.6,56.5,30.21,SE,145,12.3,12.3,75,0.00,,---,0.04,VWS V14.01,2013-07-31 10:20:00,
2013-07-31 04:25:00,64.6,56.5,30.21,SE,140,12.3,12.3,75,0.00,,---,0.04,VWS V14.01,2013-07-31 10:25:00,
2013-07-31 04:31:00,64.4,56.3,30.21,SSE,157,8.3,8.3,75,0.00,,---,0.04,VWS V14.01,2013-07-31 10:31:00,
2013-07-31 04:37:00,64.2,56.5,30.21,SSE,152,8.7,8.7,76,0.00,,---,0.04,VWS V14.01,2013-07-31 10:37:00,
2013-07-31 04:42:00,64.2,56.1,30.21,SSE,149,8.7,8.7,75,0.00,,---,0.04,VWS V14.01,2013-07-31 10:42:00,
2013-07-31 04:48:00,64.0,56.0,30.21,SSE,152,8.1,8.7,75,0.00,,---,0.04,VWS V14.01,2013-07-31 10:48:00,
2013-07-31 04:53:00,63.9,55.8,30.21,SSE,165,8.7,8.7,75,0.00,,---,0.04,VWS V14.01,2013-07-31 10:53:00,
2013-07-31 04:59:00,63.9,55.8,30.21,SSE,166,8.3,8.3,75,0.00,,---,0.04,VWS V14.01,2013-07-31 10:59:00,
2013-07-31 05:05:00,63.9,55.8,30.21,South,170,5.4,5.8,75,0.00,,---,0.04,VWS V14.01,2013-07-31 11:05:00,
2013-07-31 05:10:00,63.9,55.8,30.21,SSW,201,4.0,4.0,75,0.00,,---,0.04,VWS V14.01,2013-07-31 11:10:00,
2013-07-31 05:16:00,63.9,56.2,30.21,West,261,4.9,5.8,76,0.00,,---,0.04,VWS V14.01,2013-07-31 11:16:00,
2013-07-31 05:21:00,64.0,56.7,30.18,WNW,294,7.6,8.3,77,0.00,,---,0.04,VWS V14.01,2013-07-31 11:21:00,
2013-07-31 05:26:00,63.9,56.5,30.18,NW,308,4.0,5.4,77,0.00,,---,0.04,VWS V14.01,2013-07-31 11:26:00,
2013-07-31 05:31:00,63.3,55.6,30.18,NW,309,0.0,0.0,76,0.00,,---,0.04,VWS V14.01,2013-07-31 11:31:00,
2013-07-31 05:37:00,63.1,55.5,30.18,NW,305,2.7,2.7,76,0.00,,---,0.04,VWS V14.01,2013-07-31 11:37:00,
2013-07-31 05:43:00,63.0,55.3,30.18,WNW,295,6.3,6.3,76,0.00,,---,0.04,VWS V14.01,2013-07-31 11:43:00,
2013-07-31 05:48:00,62.8,55.1,30.21,North,350,4.0,4.9,76,0.00,,---,0.04,VWS V14.01,2013-07-31 11:48:00,
2013-07-31 05:54:00,62.8,55.5,30.21,North,349,0.0,0.0,77,0.00,,---,0.04,VWS V14.01,2013-07-31 11:54:00,
2013-07-31 05:59:00,63.1,56.2,30.21,West,259,4.9,4.9,78,0.00,,---,0.04,VWS V14.01,2013-07-31 11:59:00,
2013-07-31 06:04:00,63.3,56.3,30.21,West,262,3.6,3.6,78,0.00,,---,0.04,VWS V14.01,2013-07-31 12:04:00,
2013-07-31 06:09:00,63.5,56.5,30.21,WSW,242,0.0,0.0,78,0.00,,---,0.04,VWS V14.01,2013-07-31 12:09:00,
2013-07-31 06:15:00,63.7,56.7,30.21,WSW,257,3.6,3.6,78,0.00,,---,0.04,VWS V14.01,2013-07-31 12:15:00,
2013-07-31 06:20:00,64.0,57.0,30.21,West,267,6.7,6.7,78,0.00,,---,0.04,VWS V14.01,2013-07-31 12:20:00,
2013-07-31 06:26:00,64.2,57.6,30.21,WSW,254,3.1,3.6,79,0.00,,---,0.04,VWS V14.01,2013-07-31 12:26:00,
2013-07-31 06:32:00,64.4,57.4,30.21,SSW,205,5.8,5.8,78,0.00,,---,0.04,VWS V14.01,2013-07-31 12:32:00,
2013-07-31 06:37:00,64.6,57.6,30.21,SW,217,6.7,6.7,78,0.00,,---,0.04,VWS V14.01,2013-07-31 12:37:00,
2013-07-31 06:42:00,64.9,58.3,30.21,SSW,204,6.3,6.3,79,0.00,,---,0.04,VWS V14.01,2013-07-31 12:42:00,
2013-07-31 06:47:00,65.1,58.5,30.21,SSW,204,3.6,3.6,79,0.00,,---,0.04,VWS V14.01,2013-07-31 12:47:00,
2013-07-31 06:53:00,65.3,58.6,30.24,WSW,256,4.9,4.9,79,0.00,,---,0.04,VWS V14.01,2013-07-31 12:53:00,
2013-07-31 06:58:00,65.3,58.6,30.24,SSW,195,6.3,6.3,79,0.00,,---,0.04,VWS V14.01,2013-07-31 12:58:00,
2013-07-31 07:04:00,65.7,59.0,30.24,South,191,5.4,5.4,79,0.00,,---,0.04,VWS V14.01,2013-07-31 13:04:00,
2013-07-31 07:09:00,65.8,59.2,30.24,South,190,0.0,0.0,79,0.00,,---,0.04,VWS V14.01,2013-07-31 13:09:00,
2013-07-31 07:15:00,66.0,59.7,30.24,WSW,239,0.0,0.0,80,0.00,,---,0.04,VWS V14.01,2013-07-31 13:15:00,
2013-07-31 07:20:00,66.2,59.5,30.24,WSW,238,4.0,4.0,79,0.00,,---,0.04,VWS V14.01,2013-07-31 13:20:00,
2013-07-31 07:26:00,66.2,59.5,30.24,WNW,288,4.0,4.0,79,0.00,,---,0.04,VWS V14.01,2013-07-31 13:26:00,
2013-07-31 07:31:00,66.4,59.7,30.24,WNW,288,5.8,5.8,79,0.00,,---,0.04,VWS V14.01,2013-07-31 13:31:00,
2013-07-31 07:36:00,66.7,60.4,30.24,West,281,4.0,4.0,80,0.00,,---,0.04,VWS V14.01,2013-07-31 13:36:00,
2013-07-31 07:42:00,67.8,61.8,30.24,WNW,297,5.4,5.8,81,0.00,,---,0.04,VWS V14.01,2013-07-31 13:42:00,
2013-07-31 07:47:00,68.7,62.7,30.24,WNW,295,6.3,6.3,81,0.00,,---,0.04,VWS V14.01,2013-07-31 13:47:00,
2013-07-31 07:53:00,69.4,63.0,30.24,WNW,289,6.3,6.3,80,0.00,,---,0.04,VWS V14.01,2013-07-31 13:53:00,
2013-07-31 07:58:00,70.0,60.5,30.24,WNW,300,8.1,8.3,72,0.00,,---,0.04,VWS V14.01,2013-07-31 13:58:00,
2013-07-31 08:04:00,70.2,59.1,30.24,WSW,248,8.7,8.7,68,0.00,,---,0.04,VWS V14.01,2013-07-31 14:04:00,
2013-07-31 08:10:00,70.5,58.6,30.21,WNW,283,6.3,7.6,66,0.00,,---,0.04,VWS V14.01,2013-07-31 14:10:00,
2013-07-31 08:15:00,71.1,55.5,30.21,WNW,293,7.6,7.6,58,0.00,,---,0.04,VWS V14.01,2013-07-31 14:15:00,
2013-07-31 08:21:00,71.2,55.2,30.21,WNW,294,5.4,5.4,57,0.00,,---,0.04,VWS V14.01,2013-07-31 14:21:00,
2013-07-31 08:26:00,71.8,52.7,30.21,WNW,290,8.1,8.1,51,0.00,,---,0.04,VWS V14.01,2013-07-31 14:26:00,
2013-07-31 08:31:00,71.6,52.5,30.21,WNW,298,5.4,8.7,51,0.00,,---,0.04,VWS V14.01,2013-07-31 14:31:00,
2013-07-31 08:36:00,71.4,52.9,30.21,West,270,6.3,6.3,52,0.00,,---,0.04,VWS V14.01,2013-07-31 14:36:00,
2013-07-31 08:42:00,72.1,53.0,30.21,WNW,285,7.6,7.6,51,0.00,,---,0.04,VWS V14.01,2013-07-31 14:42:00,
2013-07-31 08:47:00,72.7,52.4,30.21,WSW,250,3.6,3.6,49,0.00,,---,0.04,VWS V14.01,2013-07-31 14:47:00,
2013-07-31 08:52:00,72.9,52.0,30.21,West,273,5.8,8.3,48,0.00,,---,0.04,VWS V14.01,2013-07-31 14:52:00,
2013-07-31 08:58:00,73.0,51.1,30.21,WSW,257,8.7,8.7,46,0.00,,---,0.04,VWS V14.01,2013-07-31 14:58:00,
2013-07-31 09:04:00,73.4,50.8,30.21,SW,230,2.2,4.9,45,0.00,,---,0.04,VWS V14.01,2013-07-31 15:04:00,
2013-07-31 09:10:00,73.9,51.3,30.21,WSW,251,5.4,8.7,45,0.00,,---,0.04,VWS V14.01,2013-07-31 15:10:00,
2013-07-31 09:15:00,74.3,51.0,30.21,SSW,213,4.9,7.6,44,0.00,,---,0.04,VWS V14.01,2013-07-31 15:15:00,
2013-07-31 09:21:00,74.5,51.2,30.21,WSW,247,8.7,8.7,44,0.00,,---,0.04,VWS V14.01,2013-07-31 15:21:00,
2013-07-31 09:26:00,74.8,51.5,30.21,SW,218,4.0,5.8,44,0.00,,---,0.04,VWS V14.01,2013-07-31 15:26:00,
2013-07-31 09:32:00,75.2,51.8,30.21,WSW,246,8.3,8.3,44,0.00,,---,0.04,VWS V14.01,2013-07-31 15:32:00,
2013-07-31 09:37:00,75.6,50.9,30.21,SW,221,6.3,6.3,42,0.00,,---,0.04,VWS V14.01,2013-07-31 15:37:00,
2013-07-31 09:42:00,75.9,51.8,30.21,SW,229,11.0,11.0,43,0.00,,---,0.04,VWS V14.01,2013-07-31 15:42:00,
2013-07-31 09:48:00,75.9,51.2,30.21,SW,223,7.6,7.6,42,0.00,,---,0.04,VWS V14.01,2013-07-31 15:48:00,
2013-07-31 09:53:00,76.3,52.2,30.21,SSW,200,11.0,11.0,43,0.00,,---,0.04,VWS V14.01,2013-07-31 15:53:00,
2013-07-31 09:59:00,76.5,51.7,30.21,SW,214,12.3,12.3,42,0.00,,---,0.04,VWS V14.01,2013-07-31 15:59:00,
2013-07-31 10:04:00,76.6,51.8,30.21,SSW,212,9.6,9.6,42,0.00,,---,0.04,VWS V14.01,2013-07-31 16:04:00,
2013-07-31 10:10:00,76.8,52.0,30.21,WSW,252,5.4,7.6,42,0.00,,---,0.04,VWS V14.01,2013-07-31 16:10:00,
2013-07-31 10:16:00,76.8,52.0,30.21,SSW,209,5.4,5.4,42,0.00,,---,0.04,VWS V14.01,2013-07-31 16:16:00,
2013-07-31 10:22:00,76.8,52.0,30.21,SSW,204,8.7,8.7,42,0.00,,---,0.04,VWS V14.01,2013-07-31 16:22:00,
2013-07-31 10:28:00,77.0,51.5,30.21,West,260,8.7,8.7,41,0.00,,---,0.04,VWS V14.01,2013-07-31 16:28:00,
2013-07-31 10:34:00,77.4,51.8,30.21,WSW,258,8.3,8.3,41,0.00,,---,0.04,VWS V14.01,2013-07-31 16:34:00,
2013-07-31 10:39:00,77.7,51.5,30.21,West,263,8.1,8.1,40,0.00,,---,0.04,VWS V14.01,2013-07-31 16:39:00,
2013-07-31 10:45:00,77.5,51.3,30.21,WSW,239,8.3,8.7,40,0.00,,---,0.04,VWS V14.01,2013-07-31 16:45:00,
2013-07-31 10:50:00,77.2,51.0,30.21,WNW,284,8.1,8.1,40,0.00,,---,0.04,VWS V14.01,2013-07-31 16:50:00,
2013-07-31 10:56:00,77.0,51.5,30.21,SW,236,6.7,6.7,41,0.00,,---,0.04,VWS V14.01,2013-07-31 16:56:00,
2013-07-31 11:01:00,77.2,51.7,30.21,West,272,5.8,6.3,41,0.00,,---,0.04,VWS V14.01,2013-07-31 17:01:00,
2013-07-31 11:07:00,77.4,51.2,30.21,West,278,6.3,7.6,40,0.00,,---,0.04,VWS V14.01,2013-07-31 17:07:00,
2013-07-31 11:13:00,77.4,51.2,30.21,WNW,292,3.1,3.1,40,0.00,,---,0.04,VWS V14.01,2013-07-31 17:13:00,
2013-07-31 11:19:00,77.2,51.0,30.21,WNW,293,6.3,7.2,40,0.00,,---,0.04,VWS V14.01,2013-07-31 17:19:00,
2013-07-31 11:24:00,77.2,51.7,30.21,WNW,289,11.9,11.9,41,0.00,,---,0.04,VWS V14.01,2013-07-31 17:24:00,
2013-07-31 11:30:00,77.2,51.7,30.21,West,268,8.3,8.3,41,0.00,,---,0.04,VWS V14.01,2013-07-31 17:30:00,
2013-07-31 11:35:00,77.2,51.7,30.21,West,269,8.1,8.1,41,0.00,,---,0.04,VWS V14.01,2013-07-31 17:35:00,
2013-07-31 11:41:00,77.7,51.5,30.21,West,276,3.1,4.0,40,0.00,,---,0.04,VWS V14.01,2013-07-31 17:41:00,
2013-07-31 11:46:00,77.7,51.5,30.21,NW,304,10.5,10.5,40,0.00,,---,0.04,VWS V14.01,2013-07-31 17:46:00,
2013-07-31 11:52:00,77.5,51.3,30.21,NW,313,7.6,8.7,40,0.00,,---,0.04,VWS V14.01,2013-07-31 17:52:00,
2013-07-31 11:58:00,77.9,52.3,30.21,NNW,342,5.8,8.3,41,0.00,,---,0.04,VWS V14.01,2013-07-31 17:58:00,
2013-07-31 12:03:00,77.7,52.2,30.21,NNW,329,5.4,8.1,41,0.00,,---,0.04,VWS V14.01,2013-07-31 18:03:00,
2013-07-31 12:09:00,77.7,52.8,30.21,NNW,338,0.0,0.0,42,0.00,,---,0.04,VWS V14.01,2013-07-31 18:09:00,
2013-07-31 12:15:00,77.9,53.0,30.21,WNW,300,4.0,4.0,42,0.00,,---,0.04,VWS V14.01,2013-07-31 18:15:00,
2013-07-31 12:20:00,78.6,52.3,30.21,NW,314,8.3,8.3,40,0.00,,---,0.04,VWS V14.01,2013-07-31 18:20:00,
2013-07-31 12:26:00,78.3,52.7,30.21,North,6,6.3,6.3,41,0.00,,---,0.04,VWS V14.01,2013-07-31 18:26:00,
2013-07-31 12:31:00,78.6,53.0,30.21,NW,315,8.7,10.5,41,0.00,,---,0.04,VWS V14.01,2013-07-31 18:31:00,
2013-07-31 12:37:00,79.2,52.8,30.21,North,357,10.1,10.1,40,0.00,,---,0.04,VWS V14.01,2013-07-31 18:37:00,
2013-07-31 12:42:00,78.8,51.8,30.21,North,357,6.3,6.3,39,0.00,,---,0.04,VWS V14.01,2013-07-31 18:42:00,
2013-07-31 12:48:00,78.8,52.5,30.21,NE,41,6.3,6.3,40,0.00,,---,0.04,VWS V14.01,2013-07-31 18:48:00,
2013-07-31 12:53:00,79.3,53.0,30.21,NE,53,5.8,5.8,40,0.00,,---,0.04,VWS V14.01,2013-07-31 18:53:00,
2013-07-31 12:58:00,79.7,53.3,30.21,NNW,329,11.0,11.0,40,0.00,,---,0.04,VWS V14.01,2013-07-31 18:58:00,
2013-07-31 13:04:00,79.7,51.9,30.21,NNE,22,8.3,8.3,38,0.00,,---,0.04,VWS V14.01,2013-07-31 19:04:00,
2013-07-31 13:09:00,79.7,51.9,30.21,NNE,31,4.9,4.9,38,0.00,,---,0.04,VWS V14.01,2013-07-31 19:09:00,
2013-07-31 13:15:00,79.9,52.0,30.21,NE,38,8.7,8.7,38,0.00,,---,0.04,VWS V14.01,2013-07-31 19:15:00,
2013-07-31 13:20:00,80.2,51.6,30.21,NNE,32,5.4,8.1,37,0.00,,---,0.04,VWS V14.01,2013-07-31 19:20:00,
2013-07-31 13:26:00,80.4,51.0,30.21,NE,45,3.1,5.8,36,0.00,,---,0.04,VWS V14.01,2013-07-31 19:26:00,
2013-07-31 13:32:00,81.0,52.3,30.21,East,79,6.3,6.3,37,0.00,,---,0.04,VWS V14.01,2013-07-31 19:32:00,
2013-07-31 13:37:00,81.7,52.2,30.21,NE,52,8.3,8.3,36,0.00,,---,0.04,VWS V14.01,2013-07-31 19:37:00,
2013-07-31 13:42:00,81.7,52.2,30.21,NNE,27,5.4,5.4,36,0.00,,---,0.04,VWS V14.01,2013-07-31 19:42:00,
2013-07-31 13:48:00,81.7,52.2,30.21,ENE,75,5.4,5.4,36,0.00,,---,0.04,VWS V14.01,2013-07-31 19:48:00,
2013-07-31 13:54:00,81.9,52.3,30.21,NE,40,5.8,5.8,36,0.00,,---,0.04,VWS V14.01,2013-07-31 19:54:00,
2013-07-31 13:59:00,81.7,51.4,30.21,ENE,58,8.1,8.1,35,0.00,,---,0.04,VWS V14.01,2013-07-31 19:59:00,
2013-07-31 14:04:00,81.9,52.3,30.21,NE,45,5.8,6.3,36,0.00,,---,0.04,VWS V14.01,2013-07-31 20:04:00,
2013-07-31 14:09:00,82.6,52.2,30.21,North,3,5.8,6.3,35,0.00,,---,0.04,VWS V14.01,2013-07-31 20:09:00,
2013-07-31 14:15:00,82.8,51.6,30.18,ENE,67,5.8,5.8,34,0.00,,---,0.04,VWS V14.01,2013-07-31 20:15:00,
2013-07-31 14:20:00,83.1,51.1,30.18,NE,35,6.7,8.7,33,0.00,,---,0.04,VWS V14.01,2013-07-31 20:20:00,
2013-07-31 14:26:00,83.3,50.4,30.18,ENE,60,8.1,8.3,32,0.00,,---,0.04,VWS V14.01,2013-07-31 20:26:00,
2013-07-31 14:32:00,83.8,50.9,30.18,NE,49,6.3,6.3,32,0.00,,---,0.04,VWS V14.01,2013-07-31 20:32:00,
2013-07-31 14:37:00,84.4,51.3,30.18,ESE,110,4.0,4.0,32,0.00,,---,0.04,VWS V14.01,2013-07-31 20:37:00,
2013-07-31 14:43:00,84.4,50.5,30.18,NE,47,10.5,10.5,31,0.00,,---,0.04,VWS V14.01,2013-07-31 20:43:00,
2013-07-31 14:49:00,83.8,50.0,30.18,NW,323,4.0,4.0,31,0.00,,---,0.04,VWS V14.01,2013-07-31 20:49:00,
2013-07-31 14:54:00,83.8,50.0,30.18,ESE,115,8.1,8.1,31,0.00,,---,0.04,VWS V14.01,2013-07-31 20:54:00,
2013-07-31 15:00:00,84.6,49.8,30.18,East,82,8.7,8.7,30,0.00,,---,0.04,VWS V14.01,2013-07-31 21:00:00,
2013-07-31 15:05:00,85.1,50.2,30.18,NE,42,6.3,8.7,30,0.00,,---,0.04,VWS V14.01,2013-07-31 21:05:00,
2013-07-31 15:10:00,84.7,49.9,30.18,North,3,7.2,8.3,30,0.00,,---,0.04,VWS V14.01,2013-07-31 21:10:00,
2013-07-31 15:15:00,84.2,48.5,30.18,ENE,57,6.3,11.0,29,0.00,,---,0.04,VWS V14.01,2013-07-31 21:15:00,
2013-07-31 15:20:00,84.0,49.3,30.15,ENE,63,6.3,6.3,30,0.00,,---,0.04,VWS V14.01,2013-07-31 21:20:00,
2013-07-31 15:25:00,84.2,48.5,30.15,ENE,57,8.1,10.5,29,0.00,,---,0.04,VWS V14.01,2013-07-31 21:25:00,
2013-07-31 15:31:00,84.4,48.7,30.15,NE,49,4.9,5.4,29,0.00,,---,0.04,VWS V14.01,2013-07-31 21:31:00,
2013-07-31 15:36:00,84.7,49.0,30.15,NNE,22,0.0,0.0,29,0.00,,---,0.04,VWS V14.01,2013-07-31 21:36:00,
2013-07-31 15:42:00,84.7,48.1,30.15,NE,46,6.3,7.6,28,0.00,,---,0.04,VWS V14.01,2013-07-31 21:42:00,
2013-07-31 15:47:00,84.9,48.2,30.15,ENE,77,0.0,6.3,28,0.00,,---,0.04,VWS V14.01,2013-07-31 21:47:00,
2013-07-31 15:53:00,85.1,48.4,30.15,North,8,11.0,11.0,28,0.00,,---,0.04,VWS V14.01,2013-07-31 21:53:00,
2013-07-31 15:59:00,84.7,47.1,30.15,North,0,7.2,8.7,27,0.00,,---,0.04,VWS V14.01,2013-07-31 21:59:00,
2013-07-31 16:04:00,84.6,46.9,30.15,NNE,25,7.6,11.0,27,0.00,,---,0.04,VWS V14.01,2013-07-31 22:04:00,
2013-07-31 16:10:00,84.7,46.1,30.15,North,3,5.8,5.8,26,0.00,,---,0.04,VWS V14.01,2013-07-31 22:10:00,
2013-07-31 16:15:00,84.7,46.1,30.15,North,0,8.7,8.7,26,0.00,,---,0.04,VWS V14.01,2013-07-31 22:15:00,
2013-07-31 16:21:00,85.3,45.5,30.15,NNE,29,8.1,8.1,25,0.00,,---,0.04,VWS V14.01,2013-07-31 22:21:00,
2013-07-31 16:27:00,85.3,45.5,30.15,North,5,9.6,9.6,25,0.00,,---,0.04,VWS V14.01,2013-07-31 22:27:00,
2013-07-31 16:32:00,85.5,45.7,30.15,North,4,3.6,4.0,25,0.00,,---,0.04,VWS V14.01,2013-07-31 22:32:00,
2013-07-31 16:37:00,85.6,45.8,30.12,ENE,77,6.3,7.6,25,0.00,,---,0.04,VWS V14.01,2013-07-31 22:37:00,
2013-07-31 16:42:00,86.0,46.1,30.12,NNE,25,8.3,8.7,25,0.00,,---,0.04,VWS V14.01,2013-07-31 22:42:00,
2013-07-31 16:48:00,85.8,46.0,30.12,NNE,15,10.1,10.1,25,0.00,,---,0.04,VWS V14.01,2013-07-31 22:48:00,
2013-07-31 16:53:00,85.8,46.0,30.12,NE,48,5.8,8.1,25,0.00,,---,0.04,VWS V14.01,2013-07-31 22:53:00,
2013-07-31 16:59:00,85.6,46.8,30.12,ENE,63,10.5,10.5,26,0.00,,---,0.04,VWS V14.01,2013-07-31 22:59:00,
2013-07-31 17:04:00,85.3,47.5,30.12,NE,49,8.7,10.5,27,0.00,,---,0.04,VWS V14.01,2013-07-31 23:04:00,
2013-07-31 17:09:00,84.9,47.2,30.12,ENE,57,7.6,8.3,27,0.00,,---,0.04,VWS V14.01,2013-07-31 23:09:00,
2013-07-31 17:14:00,84.7,48.1,30.12,NE,39,11.0,11.0,28,0.00,,---,0.04,VWS V14.01,2013-07-31 23:14:00,
2013-07-31 17:20:00,84.7,49.0,30.12,NE,46,11.0,11.0,29,0.00,,---,0.04,VWS V14.01,2013-07-31 23:20:00,
2013-07-31 17:25:00,84.9,49.2,30.12,NE,50,11.0,11.4,29,0.00,,---,0.04,VWS V14.01,2013-07-31 23:25:00,
2013-07-31 17:31:00,84.9,49.2,30.15,ENE,61,13.2,13.2,29,0.00,,---,0.04,VWS V14.01,2013-07-31 23:31:00,
2013-07-31 17:37:00,84.9,49.2,30.12,East,83,10.1,10.1,29,0.00,,---,0.04,VWS V14.01,2013-07-31 23:37:00,
2013-07-31 17:42:00,85.3,49.5,30.12,East,89,11.0,11.0,29,0.00,,---,0.04,VWS V14.01,2013-07-31 23:42:00,
2013-07-31 17:47:00,86.5,49.6,30.12,East,79,6.3,10.1,28,0.00,,---,0.04,VWS V14.01,2013-07-31 23:47:00,
2013-07-31 17:52:00,86.9,49.9,30.12,East,97,6.3,8.3,28,0.00,,---,0.04,VWS V14.01,2013-07-31 23:52:00,
2013-07-31 17:58:00,86.9,49.9,30.12,NE,49,11.4,11.4,28,0.00,,---,0.04,VWS V14.01,2013-07-31 23:58:00,
2013-07-31 18:03:00,85.3,48.5,30.12,ENE,57,8.7,8.7,28,0.00,,---,0.04,VWS V14.01,2013-08-01 00:03:00,
2013-07-31 18:09:00,85.3,48.5,30.12,NE,53,8.7,10.5,28,0.00,,---,0.04,VWS V14.01,2013-08-01 00:09:00,
2013-07-31 18:14:00,82.8,48.2,30.12,ENE,70,10.1,10.1,30,0.00,,---,0.04,VWS V14.01,2013-08-01 00:14:00,
2013-07-31 18:20:00,82.6,48.0,30.12,ENE,71,10.1,11.9,30,0.00,,---,0.04,VWS V14.01,2013-08-01 00:20:00,
2013-07-31 18:25:00,82.4,47.9,30.15,ENE,77,10.5,10.5,30,0.00,,---,0.04,VWS V14.01,2013-08-01 00:25:00,
2013-07-31 18:31:00,81.5,48.0,30.15,ENE,67,8.1,8.7,31,0.00,,---,0.04,VWS V14.01,2013-08-01 00:31:00,
2013-07-31 18:36:00,81.3,47.8,30.15,ENE,74,11.0,11.0,31,0.00,,---,0.04,VWS V14.01,2013-08-01 00:36:00,
2013-07-31 18:42:00,81.0,48.4,30.15,ENE,77,10.1,10.1,32,0.00,,---,0.04,VWS V14.01,2013-08-01 00:42:00,
2013-07-31 18:47:00,80.4,48.7,30.15,East,80,10.1,10.1,33,0.00,,---,0.04,VWS V14.01,2013-08-01 00:47:00,
2013-07-31 18:52:00,80.4,48.7,30.15,East,94,12.8,12.8,33,0.00,,---,0.04,VWS V14.01,2013-08-01 00:52:00,
2013-07-31 18:57:00,80.6,48.9,30.15,East,85,13.2,13.2,33,0.00,,---,0.04,VWS V14.01,2013-08-01 00:57:00,
2013-07-31 19:03:00,81.3,49.5,30.15,East,82,12.8,13.2,33,0.00,,---,0.04,VWS V14.01,2013-08-01 01:03:00,
2013-07-31 19:08:00,81.3,48.7,30.15,East,80,10.5,10.5,32,0.00,,---,0.04,VWS V14.01,2013-08-01 01:08:00,
2013-07-31 19:13:00,80.2,48.5,30.15,East,97,8.7,8.7,33,0.00,,---,0.04,VWS V14.01,2013-08-01 01:13:00,
2013-07-31 19:19:00,79.9,48.2,30.15,East,91,8.3,10.5,33,0.00,,---,0.04,VWS V14.01,2013-08-01 01:19:00,
2013-07-31 19:24:00,80.1,48.4,30.15,East,92,12.8,12.8,33,0.00,,---,0.04,VWS V14.01,2013-08-01 01:24:00,
2013-07-31 19:30:00,80.2,48.5,30.18,East,87,10.1,10.1,33,0.00,,---,0.04,VWS V14.01,2013-08-01 01:30:00,
2013-07-31 19:36:00,79.7,48.1,30.18,East,86,8.3,9.2,33,0.00,,---,0.04,VWS V14.01,2013-08-01 01:36:00,
2013-07-31 19:41:00,78.8,47.3,30.18,East,96,8.7,8.7,33,0.00,,---,0.04,VWS V14.01,2013-08-01 01:41:00,
2013-07-31 19:46:00,78.4,47.8,30.18,ESE,112,12.3,13.2,34,0.00,,---,0.04,VWS V14.01,2013-08-01 01:46:00,
2013-07-31 19:51:00,78.4,48.5,30.18,East,99,7.2,8.3,35,0.00,,---,0.04,VWS V14.01,2013-08-01 01:51:00,
2013-07-31 19:57:00,78.4,48.5,30.18,East,98,10.1,10.1,35,0.00,,---,0.04,VWS V14.01,2013-08-01 01:57:00,
2013-07-31 20:02:00,77.4,46.8,30.18,East,93,10.1,11.0,34,0.00,,---,0.04,VWS V14.01,2013-08-01 02:02:00,
2013-07-31 20:08:00,77.4,46.8,30.18,East,86,7.6,8.3,34,0.00,,---,0.04,VWS V14.01,2013-08-01 02:08:00,
2013-07-31 20:14:00,75.9,46.3,30.18,East,90,8.3,8.3,35,0.00,,---,0.04,VWS V14.01,2013-08-01 02:14:00,
2013-07-31 20:19:00,75.6,47.5,30.18,East,89,8.1,8.1,37,0.00,,---,0.04,VWS V14.01,2013-08-01 02:19:00,
2013-07-31 20:24:00,75.7,47.7,30.18,East,98,6.3,6.3,37,0.00,,---,0.04,VWS V14.01,2013-08-01 02:24:00,
2013-07-31 20:29:00,75.2,47.2,30.18,ESE,104,8.7,8.7,37,0.00,,---,0.04,VWS V14.01,2013-08-01 02:29:00,
2013-07-31 20:35:00,75.2,47.2,30.18,East,92,8.7,10.5,37,0.00,,---,0.04,VWS V14.01,2013-08-01 02:35:00,
2013-07-31 20:40:00,74.3,46.4,30.18,East,96,8.7,8.7,37,0.00,,---,0.04,VWS V14.01,2013-08-01 02:40:00,
2013-07-31 20:46:00,73.4,46.3,30.18,East,97,8.1,8.1,38,0.00,,---,0.04,VWS V14.01,2013-08-01 02:46:00,
2013-07-31 20:51:00,73.2,47.5,30.18,East,96,8.7,8.7,40,0.00,,---,0.04,VWS V14.01,2013-08-01 02:51:00,
2013-07-31 20:57:00,74.3,49.8,30.21,East,88,8.7,8.7,42,0.00,,---,0.04,VWS V14.01,2013-08-01 02:57:00,
2013-07-31 21:03:00,74.7,49.4,30.21,East,91,8.7,8.7,41,0.00,,---,0.04,VWS V14.01,2013-08-01 03:03:00,
2013-07-31 21:08:00,74.3,49.1,30.21,East,85,8.7,8.7,41,0.00,,---,0.04,VWS V14.01,2013-08-01 03:08:00,
2013-07-31 21:14:00,74.1,48.9,30.21,East,95,12.8,12.8,41,0.00,,---,0.04,VWS V14.01,2013-08-01 03:14:00,
2013-07-31 21:19:00,73.6,49.1,30.21,East,90,8.3,11.0,42,0.00,,---,0.04,VWS V14.01,2013-08-01 03:19:00,
2013-07-31 21:25:00,73.4,48.9,30.21,East,83,8.1,8.1,42,0.00,,---,0.04,VWS V14.01,2013-08-01 03:25:00,
2013-07-31 21:31:00,73.4,48.9,30.21,ENE,71,7.6,8.1,42,0.00,,---,0.04,VWS V14.01,2013-08-01 03:31:00,
2013-07-31 21:37:00,73.8,49.9,30.21,ENE,75,8.7,8.7,43,0.00,,---,0.04,VWS V14.01,2013-08-01 03:37:00,
2013-07-31 21:43:00,73.6,49.7,30.21,ENE,75,8.7,8.7,43,0.00,,---,0.04,VWS V14.01,2013-08-01 03:43:00,
2013-07-31 21:48:00,73.2,49.4,30.21,East,92,8.3,8.7,43,0.00,,---,0.04,VWS V14.01,2013-08-01 03:48:00,
2013-07-31 21:53:00,72.9,49.1,30.21,East,92,8.3,8.3,43,0.00,,---,0.04,VWS V14.01,2013-08-01 03:53:00,
2013-07-31 21:59:00,72.5,49.4,30.21,ESE,105,12.3,12.3,44,0.00,,---,0.04,VWS V14.01,2013-08-01 03:59:00,
2013-07-31 22:01:00,72.5,49.4,30.21,ESE,118,11.9,11.9,44,0.00,,---,0.04,VWS V14.01,2013-08-01 04:01:00,
2013-07-31 22:02:00,72.5,49.4,30.21,ESE,112,11.4,12.8,44,0.00,,---,0.04,VWS V14.01,2013-08-01 04:02:00,
2013-07-31 22:03:00,72.5,49.4,30.21,ESE,115,13.2,13.2,44,0.00,,---,0.04,VWS V14.01,2013-08-01 04:03:00,
2013-07-31 22:05:00,72.5,49.4,30.21,ESE,112,15.9,15.9,44,0.00,,---,0.04,VWS V14.01,2013-08-01 04:05:00,
2013-07-31 22:08:00,72.3,49.2,30.21,ESE,115,13.2,15.9,44,0.00,,---,0.04,VWS V14.01,2013-08-01 04:08:00,
2013-07-31 22:13:00,72.3,49.8,30.21,SE,128,11.9,11.9,45,0.00,,---,0.04,VWS V14.01,2013-08-01 04:13:00,
2013-07-31 22:18:00,72.5,50.0,30.21,SE,127,10.5,13.2,45,0.00,,---,0.04,VWS V14.01,2013-08-01 04:18:00,
2013-07-31 22:24:00,72.5,50.0,30.18,SE,128,12.8,12.8,45,0.00,,---,0.04,VWS V14.01,2013-08-01 04:24:00,
2013-07-31 22:29:00,72.5,50.0,30.18,SE,128,10.1,13.2,45,0.00,,---,0.04,VWS V14.01,2013-08-01 04:29:00,
2013-07-31 22:35:00,72.0,49.5,30.18,SE,129,12.8,12.8,45,0.00,,---,0.04,VWS V14.01,2013-08-01 04:35:00,
2013-07-31 22:41:00,70.9,49.1,30.18,ESE,119,8.3,8.3,46,0.00,,---,0.04,VWS V14.01,2013-08-01 04:41:00,
2013-07-31 22:46:00,70.5,48.8,30.18,SE,130,8.7,8.7,46,0.00,,---,0.04,VWS V14.01,2013-08-01 04:46:00,
2013-07-31 22:52:00,70.2,49.0,30.18,SE,127,8.7,8.7,47,0.00,,---,0.04,VWS V14.01,2013-08-01 04:52:00,
2013-07-31 22:57:00,70.2,49.0,30.18,SE,131,8.3,8.3,47,0.00,,---,0.04,VWS V14.01,2013-08-01 04:57:00,
2013-07-31 23:03:00,69.6,49.1,30.18,SE,139,8.7,8.7,48,0.00,,---,0.04,VWS V14.01,2013-08-01 05:03:00,
2013-07-31 23:08:00,69.4,49.5,30.18,SE,143,8.7,8.7,49,0.00,,---,0.04,VWS V14.01,2013-08-01 05:08:00,
2013-07-31 23:14:00,68.9,49.0,30.18,SE,144,8.7,8.7,49,0.00,,---,0.04,VWS V14.01,2013-08-01 05:14:00,
2013-07-31 23:20:00,68.7,49.3,30.18,SE,137,8.3,8.7,50,0.00,,---,0.04,VWS V14.01,2013-08-01 05:20:00,
2013-07-31 23:25:00,68.7,49.3,30.18,SE,138,8.1,8.1,50,0.00,,---,0.04,VWS V14.01,2013-08-01 05:25:00,
2013-07-31 23:31:00,68.4,49.0,30.18,SE,124,5.4,5.4,50,0.00,,---,0.04,VWS V14.01,2013-08-01 05:31:00,
2013-07-31 23:37:00,68.2,48.8,30.18,SE,126,7.6,7.6,50,0.00,,---,0.04,VWS V14.01,2013-08-01 05:37:00,
2013-07-31 23:42:00,68.2,48.8,30.18,SE,127,6.3,7.6,50,0.00,,---,0.04,VWS V14.01,2013-08-01 05:42:00,
2013-07-31 23:47:00,68.0,49.2,30.18,SE,133,5.8,5.8,51,0.00,,---,0.04,VWS V14.01,2013-08-01 05:47:00,
2013-07-31 23:52:00,68.0,49.2,30.18,SSE,158,6.3,6.7,51,0.00,,---,0.04,VWS V14.01,2013-08-01 05:52:00,
2013-07-31 23:58:00,67.8,49.0,30.18,SSE,166,6.3,6.7,51,0.00,,---,0.04,VWS V14.01,2013-08-01 05:58:00,